sensor_id;sensor_type;location;lat;lon;timestamp;pressure;altitude;pressure_sealevel;temperature;humidity
40612;BME280;26317;44.894;20.286;2023-08-17T00:02:08;100852.59;;;21.30;100.00
40612;BME280;26317;44.894;20.286;2023-08-17T00:04:57;100847.16;;;21.30;100.00
40612;BME280;26317;44.894;20.286;2023-08-17T00:07:31;100849.56;;;21.31;100.00
40612;BME280;26317;44.894;20.286;2023-08-17T00:10:15;100851.69;;;21.26;100.00
40612;BME280;26317;44.894;20.286;2023-08-17T00:12:50;100842.56;;;21.22;100.00
40612;BME280;26317;44.894;20.286;2023-08-17T00:15:24;100845.56;;;21.29;100.00
40612;BME280;26317;44.894;20.286;2023-08-17T00:18:08;100838.84;;;21.26;100.00
40612;BME280;26317;44.894;20.286;2023-08-17T00:20:55;100848.31;;;21.29;100.00
40612;BME280;26317;44.894;20.286;2023-08-17T00:23:30;100846.69;;;21.28;100.00
40612;BME280;26317;44.894;20.286;2023-08-17T00:26:01;100843.16;;;21.27;100.00
40612;BME280;26317;44.894;20.286;2023-08-17T00:28:38;100841.44;;;21.23;100.00
40612;BME280;26317;44.894;20.286;2023-08-17T00:31:13;100840.75;;;21.26;100.00
40612;BME280;26317;44.894;20.286;2023-08-17T00:33:54;100851.03;;;21.29;100.00
40612;BME280;26317;44.894;20.286;2023-08-17T00:36:41;100847.16;;;21.30;100.00
40612;BME280;26317;44.894;20.286;2023-08-17T00:39:20;100842.50;;;21.30;100.00
40612;BME280;26317;44.894;20.286;2023-08-17T00:41:58;100841.38;;;21.31;100.00
40612;BME280;26317;44.894;20.286;2023-08-17T00:44:36;100842.63;;;21.34;100.00
40612;BME280;26317;44.894;20.286;2023-08-17T00:47:13;100844.22;;;21.35;100.00
40612;BME280;26317;44.894;20.286;2023-08-17T00:49:53;100840.38;;;21.36;100.00
40612;BME280;26317;44.894;20.286;2023-08-17T00:52:34;100843.69;;;21.41;100.00
40612;BME280;26317;44.894;20.286;2023-08-17T00:55:14;100823.06;;;21.32;100.00
40612;BME280;26317;44.894;20.286;2023-08-17T00:57:46;100832.41;;;21.43;100.00
40612;BME280;26317;44.894;20.286;2023-08-17T01:00:29;100833.53;;;21.42;100.00
40612;BME280;26317;44.894;20.286;2023-08-17T01:03:06;100829.00;;;21.46;100.00
40612;BME280;26317;44.894;20.286;2023-08-17T01:05:44;100828.25;;;21.45;100.00
40612;BME280;26317;44.894;20.286;2023-08-17T01:08:29;100825.84;;;21.44;100.00
40612;BME280;26317;44.894;20.286;2023-08-17T01:11:18;100827.44;;;21.45;100.00
40612;BME280;26317;44.894;20.286;2023-08-17T01:14:02;100827.97;;;21.38;100.00
40612;BME280;26317;44.894;20.286;2023-08-17T01:17:00;100824.91;;;21.40;100.00
40612;BME280;26317;44.894;20.286;2023-08-17T01:19:41;100830.25;;;21.36;100.00
40612;BME280;26317;44.894;20.286;2023-08-17T01:22:21;100820.13;;;21.37;100.00
40612;BME280;26317;44.894;20.286;2023-08-17T01:25:12;100823.78;;;21.41;100.00
40612;BME280;26317;44.894;20.286;2023-08-17T01:27:54;100824.13;;;21.39;100.00
40612;BME280;26317;44.894;20.286;2023-08-17T01:30:34;100827.84;;;21.35;100.00
40612;BME280;26317;44.894;20.286;2023-08-17T01:33:20;100823.31;;;21.39;100.00
40612;BME280;26317;44.894;20.286;2023-08-17T01:36:18;100832.63;;;21.38;100.00
40612;BME280;26317;44.894;20.286;2023-08-17T01:38:59;100819.34;;;21.36;100.00
40612;BME280;26317;44.894;20.286;2023-08-17T01:41:47;100831.84;;;21.37;100.00
40612;BME280;26317;44.894;20.286;2023-08-17T01:44:25;100827.97;;;21.38;100.00
40612;BME280;26317;44.894;20.286;2023-08-17T01:46:59;100818.53;;;21.36;100.00
40612;BME280;26317;44.894;20.286;2023-08-17T01:49:34;100828.66;;;21.35;100.00
40612;BME280;26317;44.894;20.286;2023-08-17T01:52:10;100819.66;;;21.35;100.00
40612;BME280;26317;44.894;20.286;2023-08-17T01:54:48;100824.53;;;21.29;100.00
40612;BME280;26317;44.894;20.286;2023-08-17T01:57:32;100827.94;;;21.26;100.00
40612;BME280;26317;44.894;20.286;2023-08-17T02:00:17;100819.75;;;21.26;100.00
40612;BME280;26317;44.894;20.286;2023-08-17T02:02:57;100817.38;;;21.25;100.00
40612;BME280;26317;44.894;20.286;2023-08-17T02:05:35;100795.66;;;21.07;100.00
40612;BME280;26317;44.894;20.286;2023-08-17T02:08:13;100813.22;;;21.19;100.00
40612;BME280;26317;44.894;20.286;2023-08-17T02:10:48;100815.47;;;21.17;100.00
40612;BME280;26317;44.894;20.286;2023-08-17T02:13:42;100820.00;;;21.13;100.00
40612;BME280;26317;44.894;20.286;2023-08-17T02:16:23;100799.25;;;20.99;100.00
40612;BME280;26317;44.894;20.286;2023-08-17T02:19:01;100812.34;;;21.06;100.00
40612;BME280;26317;44.894;20.286;2023-08-17T02:21:38;100817.34;;;21.04;100.00
40612;BME280;26317;44.894;20.286;2023-08-17T02:24:15;100812.22;;;21.02;100.00
40612;BME280;26317;44.894;20.286;2023-08-17T02:26:49;100818.13;;;21.04;100.00
40612;BME280;26317;44.894;20.286;2023-08-17T02:29:28;100826.00;;;21.06;100.00
40612;BME280;26317;44.894;20.286;2023-08-17T02:32:05;100815.88;;;21.06;100.00
40612;BME280;26317;44.894;20.286;2023-08-17T02:34:52;100811.75;;;21.00;100.00
40612;BME280;26317;44.894;20.286;2023-08-17T02:37:28;100808.69;;;21.02;100.00
40612;BME280;26317;44.894;20.286;2023-08-17T02:40:10;100809.50;;;21.02;100.00
40612;BME280;26317;44.894;20.286;2023-08-17T02:42:43;100809.03;;;21.00;100.00
40612;BME280;26317;44.894;20.286;2023-08-17T02:45:27;100811.75;;;21.00;100.00
40612;BME280;26317;44.894;20.286;2023-08-17T02:48:09;100816.41;;;21.00;100.00
40612;BME280;26317;44.894;20.286;2023-08-17T02:51:02;100813.22;;;20.98;100.00
40612;BME280;26317;44.894;20.286;2023-08-17T02:53:38;100810.94;;;21.00;100.00
40612;BME280;26317;44.894;20.286;2023-08-17T02:56:19;100800.31;;;20.86;100.00
40612;BME280;26317;44.894;20.286;2023-08-17T02:59:02;100818.69;;;20.98;100.00
40612;BME280;26317;44.894;20.286;2023-08-17T03:01:50;100818.56;;;20.94;100.00
40612;BME280;26317;44.894;20.286;2023-08-17T03:04:27;100816.94;;;20.93;100.00
40612;BME280;26317;44.894;20.286;2023-08-17T03:07:01;100812.16;;;20.90;100.00
40612;BME280;26317;44.894;20.286;2023-08-17T03:09:40;100821.59;;;20.93;100.00
40612;BME280;26317;44.894;20.286;2023-08-17T03:12:36;100807.09;;;20.80;100.00
40612;BME280;26317;44.894;20.286;2023-08-17T03:15:24;100808.84;;;20.85;100.00
40612;BME280;26317;44.894;20.286;2023-08-17T03:18:04;100828.72;;;20.85;100.00
40612;BME280;26317;44.894;20.286;2023-08-17T03:20:44;100829.84;;;20.84;100.00
40612;BME280;26317;44.894;20.286;2023-08-17T03:23:28;100829.38;;;20.82;100.00
40612;BME280;26317;44.894;20.286;2023-08-17T03:26:04;100829.38;;;20.82;100.00
40612;BME280;26317;44.894;20.286;2023-08-17T03:28:35;100821.09;;;20.79;100.00
40612;BME280;26317;44.894;20.286;2023-08-17T03:31:08;100823.47;;;20.80;100.00
40612;BME280;26317;44.894;20.286;2023-08-17T03:33:47;100817.88;;;20.77;100.00
40612;BME280;26317;44.894;20.286;2023-08-17T03:36:21;100830.50;;;20.81;100.00
40612;BME280;26317;44.894;20.286;2023-08-17T03:39:00;100825.72;;;20.78;100.00
40612;BME280;26317;44.894;20.286;2023-08-17T03:41:37;100831.81;;;20.75;100.00
40612;BME280;26317;44.894;20.286;2023-08-17T03:44:14;100839.69;;;20.77;100.00
40612;BME280;26317;44.894;20.286;2023-08-17T03:46:52;100838.88;;;20.76;100.00
40612;BME280;26317;44.894;20.286;2023-08-17T03:49:30;100832.03;;;20.70;100.00
40612;BME280;26317;44.894;20.286;2023-08-17T03:52:13;100843.22;;;20.77;100.00
40612;BME280;26317;44.894;20.286;2023-08-17T03:54:55;100843.53;;;20.76;100.00
40612;BME280;26317;44.894;20.286;2023-08-17T03:57:30;100844.34;;;20.76;100.00
40612;BME280;26317;44.894;20.286;2023-08-17T04:00:09;100850.91;;;20.75;100.00
40612;BME280;26317;44.894;20.286;2023-08-17T04:02:46;100850.13;;;20.75;100.00
40612;BME280;26317;44.894;20.286;2023-08-17T04:05:37;100846.00;;;20.69;100.00
40612;BME280;26317;44.894;20.286;2023-08-17T04:08:13;100856.41;;;20.66;100.00
40612;BME280;26317;44.894;20.286;2023-08-17T04:10:51;100855.84;;;20.61;100.00
40612;BME280;26317;44.894;20.286;2023-08-17T04:13:24;100861.47;;;20.56;100.00
40612;BME280;26317;44.894;20.286;2023-08-17T04:16:07;100864.38;;;20.51;100.00
40612;BME280;26317;44.894;20.286;2023-08-17T04:18:47;100857.53;;;20.45;100.00
40612;BME280;26317;44.894;20.286;2023-08-17T04:21:48;100868.59;;;20.40;100.00
40612;BME280;26317;44.894;20.286;2023-08-17T04:24:26;100864.47;;;20.34;100.00
40612;BME280;26317;44.894;20.286;2023-08-17T04:27:17;100860.78;;;20.30;100.00
40612;BME280;26317;44.894;20.286;2023-08-17T04:29:53;100861.09;;;20.28;100.00
40612;BME280;26317;44.894;20.286;2023-08-17T04:32:52;100860.00;;;20.20;100.00
40612;BME280;26317;44.894;20.286;2023-08-17T04:35:29;100855.88;;;20.14;100.00
40612;BME280;26317;44.894;20.286;2023-08-17T04:38:11;100861.31;;;20.14;100.00
40612;BME280;26317;44.894;20.286;2023-08-17T04:40:51;100870.59;;;20.13;100.00
40612;BME280;26317;44.894;20.286;2023-08-17T04:43:25;100879.13;;;20.12;100.00
40612;BME280;26317;44.894;20.286;2023-08-17T04:46:06;100864.38;;;20.04;100.00
40612;BME280;26317;44.894;20.286;2023-08-17T04:48:44;100866.13;;;20.09;100.00
40612;BME280;26317;44.894;20.286;2023-08-17T04:51:19;100865.16;;;20.13;100.00
40612;BME280;26317;44.894;20.286;2023-08-17T04:54:05;100873.81;;;20.15;100.00
40612;BME280;26317;44.894;20.286;2023-08-17T04:56:44;100867.72;;;20.18;100.00
40612;BME280;26317;44.894;20.286;2023-08-17T04:59:23;100865.66;;;20.15;100.00
40612;BME280;26317;44.894;20.286;2023-08-17T05:01:57;100866.59;;;20.19;100.00
40612;BME280;26317;44.894;20.286;2023-08-17T05:04:33;100870.25;;;20.24;100.00
40612;BME280;26317;44.894;20.286;2023-08-17T05:07:18;100864.31;;;20.21;100.00
40612;BME280;26317;44.894;20.286;2023-08-17T05:09:59;100868.00;;;20.26;100.00
40612;BME280;26317;44.894;20.286;2023-08-17T05:12:34;100869.28;;;20.28;100.00
40612;BME280;26317;44.894;20.286;2023-08-17T05:15:08;100874.56;;;20.33;100.00
40612;BME280;26317;44.894;20.286;2023-08-17T05:17:41;100883.22;;;20.35;100.00
40612;BME280;26317;44.894;20.286;2023-08-17T05:20:20;100878.56;;;20.36;100.00
40612;BME280;26317;44.894;20.286;2023-08-17T05:23:03;100886.56;;;20.41;100.00
40612;BME280;26317;44.894;20.286;2023-08-17T05:25:49;100888.31;;;20.45;100.00
40612;BME280;26317;44.894;20.286;2023-08-17T05:28:27;100884.78;;;20.45;100.00
40612;BME280;26317;44.894;20.286;2023-08-17T05:31:05;100891.63;;;20.51;100.00
40612;BME280;26317;44.894;20.286;2023-08-17T05:33:42;100891.13;;;20.57;100.00
40612;BME280;26317;44.894;20.286;2023-08-17T05:36:18;100887.56;;;20.65;100.00
40612;BME280;26317;44.894;20.286;2023-08-17T05:38:58;100893.94;;;20.70;100.00
40612;BME280;26317;44.894;20.286;2023-08-17T05:41:50;100883.84;;;20.70;100.00
40612;BME280;26317;44.894;20.286;2023-08-17T05:44:27;100877.84;;;20.77;100.00
40612;BME280;26317;44.894;20.286;2023-08-17T05:47:18;100881.19;;;20.82;100.00
40612;BME280;26317;44.894;20.286;2023-08-17T05:49:55;100883.75;;;20.87;100.00
40612;BME280;26317;44.894;20.286;2023-08-17T05:52:39;100878.75;;;20.89;100.00
40612;BME280;26317;44.894;20.286;2023-08-17T05:55:18;100888.34;;;20.95;100.00
40612;BME280;26317;44.894;20.286;2023-08-17T05:58:11;100874.88;;;20.90;100.00
40612;BME280;26317;44.894;20.286;2023-08-17T06:00:52;100877.25;;;20.92;100.00
40612;BME280;26317;44.894;20.286;2023-08-17T06:03:27;100893.78;;;20.95;100.00
40612;BME280;26317;44.894;20.286;2023-08-17T06:06:01;100883.47;;;21.01;100.00
40612;BME280;26317;44.894;20.286;2023-08-17T06:08:36;100884.75;;;21.03;100.00
40612;BME280;26317;44.894;20.286;2023-08-17T06:11:16;100887.72;;;21.10;100.00
40612;BME280;26317;44.894;20.286;2023-08-17T06:14:12;100884.25;;;21.01;100.00
40612;BME280;26317;44.894;20.286;2023-08-17T06:16:48;100894.97;;;21.06;100.00
40612;BME280;26317;44.894;20.286;2023-08-17T06:19:26;100892.44;;;21.01;100.00
40612;BME280;26317;44.894;20.286;2023-08-17T06:22:05;100890.19;;;21.03;100.00
40612;BME280;26317;44.894;20.286;2023-08-17T06:25:01;100880.16;;;20.95;100.00
40612;BME280;26317;44.894;20.286;2023-08-17T06:27:38;100873.41;;;20.93;100.00
40612;BME280;26317;44.894;20.286;2023-08-17T06:30:32;100878.53;;;20.94;100.00
40612;BME280;26317;44.894;20.286;2023-08-17T06:33:19;100878.88;;;20.93;100.00
40612;BME280;26317;44.894;20.286;2023-08-17T06:35:57;100891.66;;;21.01;100.00
40612;BME280;26317;44.894;20.286;2023-08-17T06:38:35;100885.19;;;21.05;100.00
40612;BME280;26317;44.894;20.286;2023-08-17T06:41:10;100873.09;;;20.94;100.00
40612;BME280;26317;44.894;20.286;2023-08-17T06:44:04;100890.94;;;21.13;100.00
40612;BME280;26317;44.894;20.286;2023-08-17T06:46:47;100893.28;;;21.23;100.00
40612;BME280;26317;44.894;20.286;2023-08-17T06:49:20;100894.34;;;21.30;100.00
40612;BME280;26317;44.894;20.286;2023-08-17T06:51:58;100896.19;;;21.38;100.00
40612;BME280;26317;44.894;20.286;2023-08-17T06:54:31;100897.25;;;21.46;100.00
40612;BME280;26317;44.894;20.286;2023-08-17T06:57:07;100898.19;;;21.50;100.00
40612;BME280;26317;44.894;20.286;2023-08-17T06:59:44;100899.81;;;21.63;100.00
40612;BME280;26317;44.894;20.286;2023-08-17T07:02:25;100910.09;;;21.66;100.00
40612;BME280;26317;44.894;20.286;2023-08-17T07:05:21;100902.03;;;21.70;100.00
40612;BME280;26317;44.894;20.286;2023-08-17T07:08:25;100906.25;;;21.79;100.00
40612;BME280;26317;44.894;20.286;2023-08-17T07:11:01;100906.41;;;21.83;100.00
40612;BME280;26317;44.894;20.286;2023-08-17T07:13:40;100909.84;;;21.92;100.00
40612;BME280;26317;44.894;20.286;2023-08-17T07:16:12;100908.38;;;21.94;100.00
40612;BME280;26317;44.894;20.286;2023-08-17T07:18:52;100907.50;;;22.02;100.00
40612;BME280;26317;44.894;20.286;2023-08-17T07:21:36;100903.66;;;22.16;100.00
40612;BME280;26317;44.894;20.286;2023-08-17T07:24:14;100910.25;;;22.27;100.00
40612;BME280;26317;44.894;20.286;2023-08-17T07:26:47;100911.66;;;22.33;100.00
40612;BME280;26317;44.894;20.286;2023-08-17T07:29:18;100924.41;;;22.41;100.00
40612;BME280;26317;44.894;20.286;2023-08-17T07:31:50;100924.97;;;22.46;100.00
40612;BME280;26317;44.894;20.286;2023-08-17T07:34:39;100925.53;;;22.52;100.00
40612;BME280;26317;44.894;20.286;2023-08-17T07:37:18;100921.09;;;22.60;100.00
40612;BME280;26317;44.894;20.286;2023-08-17T07:40:02;100919.88;;;22.69;100.00
40612;BME280;26317;44.894;20.286;2023-08-17T07:42:39;100925.34;;;22.81;100.00
40612;BME280;26317;44.894;20.286;2023-08-17T07:45:23;100919.19;;;22.84;100.00
40612;BME280;26317;44.894;20.286;2023-08-17T07:48:02;100932.97;;;23.00;100.00
40612;BME280;26317;44.894;20.286;2023-08-17T07:50:49;100926.25;;;22.98;100.00
40612;BME280;26317;44.894;20.286;2023-08-17T07:53:26;100933.19;;;23.07;100.00
40612;BME280;26317;44.894;20.286;2023-08-17T07:56:00;100934.88;;;23.12;100.00
40612;BME280;26317;44.894;20.286;2023-08-17T07:58:38;100928.84;;;23.06;100.00
40612;BME280;26317;44.894;20.286;2023-08-17T08:01:20;100919.00;;;23.17;100.00
40612;BME280;26317;44.894;20.286;2023-08-17T08:03:56;100904.00;;;23.11;100.00
40612;BME280;26317;44.894;20.286;2023-08-17T08:06:44;100926.94;;;23.34;100.00
40612;BME280;26317;44.894;20.286;2023-08-17T08:09:21;100923.75;;;23.45;100.00
40612;BME280;26317;44.894;20.286;2023-08-17T08:11:57;100930.13;;;23.49;100.00
40612;BME280;26317;44.894;20.286;2023-08-17T08:14:41;100932.72;;;23.57;100.00
40612;BME280;26317;44.894;20.286;2023-08-17T08:17:19;100928.25;;;23.65;100.00
40612;BME280;26317;44.894;20.286;2023-08-17T08:19:55;100930.38;;;23.71;100.00
40612;BME280;26317;44.894;20.286;2023-08-17T08:22:47;100926.50;;;23.72;100.00
40612;BME280;26317;44.894;20.286;2023-08-17T08:25:20;100926.25;;;23.77;100.00
40612;BME280;26317;44.894;20.286;2023-08-17T08:28:08;100919.25;;;23.80;100.00
40612;BME280;26317;44.894;20.286;2023-08-17T08:31:01;100921.84;;;23.89;100.00
40612;BME280;26317;44.894;20.286;2023-08-17T08:33:45;100917.38;;;23.96;100.00
40612;BME280;26317;44.894;20.286;2023-08-17T08:36:25;100922.94;;;24.00;98.81
40612;BME280;26317;44.894;20.286;2023-08-17T08:39:04;100920.00;;;23.93;100.00
40612;BME280;26317;44.894;20.286;2023-08-17T08:41:39;100927.00;;;24.06;99.36
40612;BME280;26317;44.894;20.286;2023-08-17T08:44:15;100928.66;;;24.22;100.00
40612;BME280;26317;44.894;20.286;2023-08-17T08:46:55;100923.00;;;24.31;100.00
40612;BME280;26317;44.894;20.286;2023-08-17T08:49:39;100920.97;;;24.44;98.71
40612;BME280;26317;44.894;20.286;2023-08-17T08:52:19;100916.34;;;24.48;98.31
40612;BME280;26317;44.894;20.286;2023-08-17T08:55:10;100923.59;;;24.56;97.32
40612;BME280;26317;44.894;20.286;2023-08-17T08:57:47;100918.53;;;24.73;97.30
40612;BME280;26317;44.894;20.286;2023-08-17T09:00:26;100900.28;;;24.81;97.70
40612;BME280;26317;44.894;20.286;2023-08-17T09:03:08;100914.78;;;25.13;95.25
40612;BME280;26317;44.894;20.286;2023-08-17T09:05:56;100912.91;;;25.17;94.97
40612;BME280;26317;44.894;20.286;2023-08-17T09:08:48;100913.91;;;25.09;93.19
40612;BME280;26317;44.894;20.286;2023-08-17T09:11:39;100911.50;;;25.07;94.54
40612;BME280;26317;44.894;20.286;2023-08-17T09:14:16;100914.97;;;25.24;97.30
40612;BME280;26317;44.894;20.286;2023-08-17T09:16:50;100915.19;;;25.34;97.23
40612;BME280;26317;44.894;20.286;2023-08-17T09:19:23;100913.63;;;25.52;96.05
40612;BME280;26317;44.894;20.286;2023-08-17T09:21:57;100907.19;;;25.64;97.06
40612;BME280;26317;44.894;20.286;2023-08-17T09:24:39;100913.78;;;25.79;94.50
40612;BME280;26317;44.894;20.286;2023-08-17T09:27:22;100907.38;;;25.94;94.28
40612;BME280;26317;44.894;20.286;2023-08-17T09:30:02;100909.75;;;26.18;93.48
40612;BME280;26317;44.894;20.286;2023-08-17T09:32:43;100913.78;;;26.21;92.55
40612;BME280;26317;44.894;20.286;2023-08-17T09:35:24;100919.19;;;26.17;90.09
40612;BME280;26317;44.894;20.286;2023-08-17T09:38:08;100916.75;;;26.12;90.01
40612;BME280;26317;44.894;20.286;2023-08-17T09:40:42;100918.00;;;26.18;86.26
40612;BME280;26317;44.894;20.286;2023-08-17T09:43:33;100914.69;;;26.28;87.37
40612;BME280;26317;44.894;20.286;2023-08-17T09:46:15;100910.28;;;26.46;87.09
40612;BME280;26317;44.894;20.286;2023-08-17T09:49:09;100905.50;;;26.43;85.72
40612;BME280;26317;44.894;20.286;2023-08-17T09:51:49;100902.78;;;26.47;83.62
40612;BME280;26317;44.894;20.286;2023-08-17T09:54:25;100908.47;;;26.58;83.84
40612;BME280;26317;44.894;20.286;2023-08-17T09:56:59;100903.53;;;26.67;83.39
40612;BME280;26317;44.894;20.286;2023-08-17T10:00:21;100902.03;;;26.73;83.78
40612;BME280;26317;44.894;20.286;2023-08-17T10:02:55;100901.41;;;26.83;83.13
40612;BME280;26317;44.894;20.286;2023-08-17T10:05:42;100879.31;;;26.79;82.36
40612;BME280;26317;44.894;20.286;2023-08-17T10:08:19;100895.25;;;26.93;81.25
40612;BME280;26317;44.894;20.286;2023-08-17T10:11:03;100891.78;;;26.96;79.90
40612;BME280;26317;44.894;20.286;2023-08-17T10:13:52;100873.31;;;26.96;79.78
40612;BME280;26317;44.894;20.286;2023-08-17T10:16:57;100879.66;;;27.01;80.63
40612;BME280;26317;44.894;20.286;2023-08-17T10:19:43;100883.97;;;27.31;80.69
40612;BME280;26317;44.894;20.286;2023-08-17T10:22:39;100879.50;;;27.50;78.23
40612;BME280;26317;44.894;20.286;2023-08-17T10:25:27;100881.91;;;27.55;75.93
40612;BME280;26317;44.894;20.286;2023-08-17T10:28:00;100880.38;;;27.61;74.35
40612;BME280;26317;44.894;20.286;2023-08-17T10:30:37;100881.63;;;27.63;75.69
40612;BME280;26317;44.894;20.286;2023-08-17T10:33:30;100882.91;;;27.76;77.45
40612;BME280;26317;44.894;20.286;2023-08-17T10:36:12;100878.69;;;27.86;75.87
40612;BME280;26317;44.894;20.286;2023-08-17T10:41:57;100870.44;;;27.89;73.98
40612;BME280;26317;44.894;20.286;2023-08-17T10:44:44;100870.03;;;27.87;73.17
40612;BME280;26317;44.894;20.286;2023-08-17T10:47:20;100863.06;;;28.01;72.50
40612;BME280;26317;44.894;20.286;2023-08-17T10:50:22;100849.31;;;28.04;74.37
40612;BME280;26317;44.894;20.286;2023-08-17T10:53:08;100849.81;;;28.13;69.26
40612;BME280;26317;44.894;20.286;2023-08-17T10:55:49;100842.38;;;28.17;71.64
40612;BME280;26317;44.894;20.286;2023-08-17T10:58:34;100836.84;;;28.17;72.37
40612;BME280;26317;44.894;20.286;2023-08-17T11:01:12;100843.09;;;28.14;72.17
40612;BME280;26317;44.894;20.286;2023-08-17T11:04:10;100842.28;;;28.10;72.21
40612;BME280;26317;44.894;20.286;2023-08-17T11:07:00;100835.91;;;28.03;71.76
40612;BME280;26317;44.894;20.286;2023-08-17T11:09:44;100836.28;;;28.01;70.06
40612;BME280;26317;44.894;20.286;2023-08-17T11:12:32;100829.59;;;28.06;72.64
40612;BME280;26317;44.894;20.286;2023-08-17T11:15:14;100830.91;;;28.15;71.57
40612;BME280;26317;44.894;20.286;2023-08-17T11:17:50;100827.78;;;28.20;71.45
40612;BME280;26317;44.894;20.286;2023-08-17T11:20:28;100814.00;;;28.20;72.57
40612;BME280;26317;44.894;20.286;2023-08-17T11:23:15;100814.03;;;28.24;71.56
40612;BME280;26317;44.894;20.286;2023-08-17T11:25:57;100809.31;;;28.28;71.12
40612;BME280;26317;44.894;20.286;2023-08-17T11:28:36;100826.72;;;28.39;71.67
40612;BME280;26317;44.894;20.286;2023-08-17T11:31:28;100818.06;;;28.37;72.58
40612;BME280;26317;44.894;20.286;2023-08-17T11:34:01;100823.56;;;28.37;72.34
40612;BME280;26317;44.894;20.286;2023-08-17T11:36:37;100825.66;;;28.51;69.12
40612;BME280;26317;44.894;20.286;2023-08-17T11:39:21;100811.75;;;28.40;67.67
40612;BME280;26317;44.894;20.286;2023-08-17T11:41:57;100821.81;;;28.69;69.38
40612;BME280;26317;44.894;20.286;2023-08-17T11:44:30;100822.72;;;28.88;69.79
40612;BME280;26317;44.894;20.286;2023-08-17T11:47:12;100820.78;;;28.99;71.43
40612;BME280;26317;44.894;20.286;2023-08-17T11:49:59;100815.28;;;29.02;67.49
40612;BME280;26317;44.894;20.286;2023-08-17T11:52:59;100814.88;;;29.04;68.49
40612;BME280;26317;44.894;20.286;2023-08-17T11:55:52;100819.19;;;28.98;66.89
40612;BME280;26317;44.894;20.286;2023-08-17T11:58:45;100817.66;;;29.04;68.32
40612;BME280;26317;44.894;20.286;2023-08-17T12:01:19;100818.47;;;29.18;69.82
40612;BME280;26317;44.894;20.286;2023-08-17T12:03:57;100814.63;;;29.34;70.83
40612;BME280;26317;44.894;20.286;2023-08-17T12:06:44;100809.94;;;29.55;70.30
40612;BME280;26317;44.894;20.286;2023-08-17T12:09:21;100812.69;;;29.69;68.53
40612;BME280;26317;44.894;20.286;2023-08-17T12:12:16;100808.41;;;29.90;67.31
40612;BME280;26317;44.894;20.286;2023-08-17T12:14:56;100804.47;;;30.01;66.06
40612;BME280;26317;44.894;20.286;2023-08-17T12:17:34;100798.91;;;30.12;63.90
40612;BME280;26317;44.894;20.286;2023-08-17T12:20:16;100798.09;;;30.26;66.02
40612;BME280;26317;44.894;20.286;2023-08-17T12:22:48;100800.47;;;30.38;65.50
40612;BME280;26317;44.894;20.286;2023-08-17T12:25:25;100796.91;;;30.51;65.03
40612;BME280;26317;44.894;20.286;2023-08-17T12:28:13;100800.03;;;30.64;64.32
40612;BME280;26317;44.894;20.286;2023-08-17T12:31:00;100795.66;;;30.67;61.58
40612;BME280;26317;44.894;20.286;2023-08-17T12:33:38;100788.91;;;30.71;62.24
40612;BME280;26317;44.894;20.286;2023-08-17T12:36:20;100774.25;;;30.78;61.63
40612;BME280;26317;44.894;20.286;2023-08-17T12:38:58;100773.41;;;30.91;62.05
40612;BME280;26317;44.894;20.286;2023-08-17T12:41:34;100785.66;;;30.97;61.90
40612;BME280;26317;44.894;20.286;2023-08-17T12:44:23;100784.44;;;31.06;61.04
40612;BME280;26317;44.894;20.286;2023-08-17T12:47:11;100778.88;;;31.13;63.03
40612;BME280;26317;44.894;20.286;2023-08-17T12:49:49;100770.06;;;31.28;63.57
40612;BME280;26317;44.894;20.286;2023-08-17T12:52:33;100771.56;;;31.40;61.38
40612;BME280;26317;44.894;20.286;2023-08-17T12:55:17;100768.78;;;31.40;62.88
40612;BME280;26317;44.894;20.286;2023-08-17T12:57:51;100760.84;;;31.42;61.96
40612;BME280;26317;44.894;20.286;2023-08-17T13:00:41;100773.06;;;31.55;60.31
40612;BME280;26317;44.894;20.286;2023-08-17T13:03:15;100760.75;;;31.52;59.82
40612;BME280;26317;44.894;20.286;2023-08-17T13:05:56;100761.13;;;31.62;60.94
40612;BME280;26317;44.894;20.286;2023-08-17T13:08:46;100760.22;;;31.75;60.77
40612;BME280;26317;44.894;20.286;2023-08-17T13:11:24;100761.31;;;31.88;59.74
40612;BME280;26317;44.894;20.286;2023-08-17T13:14:03;100760.75;;;32.04;60.06
40612;BME280;26317;44.894;20.286;2023-08-17T13:16:46;100753.88;;;32.23;59.55
40612;BME280;26317;44.894;20.286;2023-08-17T13:19:21;100744.91;;;32.42;58.53
40612;BME280;26317;44.894;20.286;2023-08-17T13:22:01;100754.66;;;32.57;57.96
40612;BME280;26317;44.894;20.286;2023-08-17T13:24:40;100752.25;;;32.59;56.91
40612;BME280;26317;44.894;20.286;2023-08-17T13:27:21;100748.75;;;32.55;56.37
40612;BME280;26317;44.894;20.286;2023-08-17T13:29:58;100751.59;;;32.48;57.02
40612;BME280;26317;44.894;20.286;2023-08-17T13:32:48;100748.53;;;32.39;56.49
40612;BME280;26317;44.894;20.286;2023-08-17T13:35:30;100752.88;;;32.40;55.90
40612;BME280;26317;44.894;20.286;2023-08-17T13:38:07;100757.88;;;32.18;57.48
40612;BME280;26317;44.894;20.286;2023-08-17T13:40:43;100754.47;;;32.00;58.41
40612;BME280;26317;44.894;20.286;2023-08-17T13:43:23;100750.28;;;31.78;59.24
40612;BME280;26317;44.894;20.286;2023-08-17T13:46:01;100745.09;;;31.83;59.52
40612;BME280;26317;44.894;20.286;2023-08-17T13:48:40;100737.53;;;31.87;59.63